createdAt,value
2018-10-11T00:00:45.112Z,91.90
2018-10-11T00:03:20.554Z,91.60
2018-10-11T00:05:55.532Z,91.80
2018-10-11T00:08:30.295Z,91.90
2018-10-11T00:11:04.795Z,91.90
2018-10-11T00:13:40.684Z,91.80
2018-10-11T00:16:15.186Z,91.40
2018-10-11T00:18:49.891Z,91.10
2018-10-11T00:21:24.987Z,91.10
2018-10-11T00:23:59.900Z,91.00
2018-10-11T00:26:35.049Z,90.80
2018-10-11T00:29:09.940Z,90.70
2018-10-11T00:31:44.427Z,90.80
2018-10-11T00:34:18.894Z,90.80
2018-10-11T00:36:53.620Z,90.90
2018-10-11T00:39:28.572Z,90.90
2018-10-11T00:42:03.088Z,90.80
2018-10-11T00:44:37.748Z,90.80
2018-10-11T00:47:12.338Z,90.70
2018-10-11T00:49:47.671Z,90.90
2018-10-11T00:52:22.377Z,90.90
2018-10-11T00:54:58.081Z,90.40
2018-10-11T00:57:33.360Z,90.70
2018-10-11T01:00:08.635Z,90.50
2018-10-11T01:02:42.987Z,90.30
2018-10-11T01:05:17.621Z,90.20
2018-10-11T01:07:52.567Z,90.30
2018-10-11T01:10:26.939Z,90.20
2018-10-11T01:13:01.415Z,90.20
2018-10-11T01:15:36.701Z,90.10
2018-10-11T01:18:11.050Z,90.20
2018-10-11T01:20:46.310Z,89.90
2018-10-11T01:23:20.690Z,89.50
2018-10-11T01:25:55.998Z,89.80
2018-10-11T01:28:31.211Z,90.00
2018-10-11T01:31:12.064Z,89.60
2018-10-11T01:33:46.904Z,89.40
2018-10-11T01:36:22.355Z,89.80
2018-10-11T01:38:57.989Z,90.00
2018-10-11T01:41:32.492Z,90.00
2018-10-11T01:44:06.910Z,90.30
2018-10-11T01:46:41.356Z,90.40
2018-10-11T01:49:16.630Z,90.10
2018-10-11T01:51:51.206Z,90.20
2018-10-11T01:54:26.084Z,90.20
2018-10-11T01:57:01.101Z,90.50
2018-10-11T01:59:36.084Z,90.40
2018-10-11T02:02:11.037Z,90.30
2018-10-11T02:04:45.353Z,90.10
2018-10-11T02:07:20.144Z,90.20
2018-10-11T02:09:54.560Z,89.60
2018-10-11T02:12:29.457Z,89.70
2018-10-11T02:15:04.261Z,89.30
2018-10-11T02:17:38.712Z,89.30
2018-10-11T02:20:20.291Z,89.50
2018-10-11T02:22:55.862Z,89.00
2018-10-11T02:25:30.754Z,88.50
2018-10-11T02:28:06.104Z,89.10
2018-10-11T02:30:41.420Z,88.50
2018-10-11T02:33:15.906Z,88.40
2018-10-11T02:35:50.451Z,87.90
2018-10-11T02:38:25.765Z,88.30
2018-10-11T02:41:00.252Z,88.40
2018-10-11T02:43:34.744Z,87.90
2018-10-11T02:46:09.916Z,88.60
2018-10-11T02:48:45.169Z,88.00
2018-10-11T02:51:19.818Z,88.60
2018-10-11T02:53:59.446Z,88.40
2018-10-11T02:56:35.196Z,87.30
2018-10-11T02:59:32.410Z,87.60
2018-10-11T03:02:11.486Z,87.60
2018-10-11T03:04:47.576Z,88.60
2018-10-11T03:07:22.195Z,88.10
2018-10-11T03:09:57.835Z,87.70
2018-10-11T03:12:32.731Z,88.00
2018-10-11T03:15:08.167Z,87.90
2018-10-11T03:17:42.827Z,87.80
2018-10-11T03:20:21.377Z,88.30
2018-10-11T03:22:56.486Z,89.00
2018-10-11T03:25:31.710Z,88.30
2018-10-11T03:28:07.231Z,88.40
2018-10-11T03:30:43.251Z,89.10
2018-10-11T03:33:17.696Z,89.10
2018-10-11T03:35:52.139Z,88.60
2018-10-11T03:38:27.040Z,88.20
2018-10-11T03:41:01.583Z,88.00
2018-10-11T03:43:36.711Z,87.80
2018-10-11T03:46:11.253Z,87.30
2018-10-11T03:48:46.635Z,87.00
2018-10-11T03:51:21.083Z,87.40
2018-10-11T03:54:03.123Z,87.00
2018-10-11T03:56:47.315Z,87.80
2018-10-11T03:59:21.879Z,88.10
2018-10-11T04:01:56.407Z,87.80
2018-10-11T04:04:30.875Z,87.00
2018-10-11T04:07:06.180Z,86.90
2018-10-11T04:09:40.896Z,86.30
2018-10-11T04:12:15.605Z,86.60
2018-10-11T04:14:50.739Z,86.50
2018-10-11T04:17:25.195Z,86.40
2018-10-11T04:20:00.041Z,86.40
2018-10-11T04:22:35.179Z,85.90
2018-10-11T04:25:10.603Z,85.60
2018-10-11T04:27:45.788Z,85.50
2018-10-11T04:30:24.212Z,85.60
2018-10-11T04:32:58.661Z,85.50
2018-10-11T04:35:33.054Z,85.50
2018-10-11T04:38:08.131Z,85.00
2018-10-11T04:40:43.683Z,84.20
2018-10-11T04:43:18.067Z,84.50
2018-10-11T04:45:53.042Z,84.10
2018-10-11T04:48:27.895Z,84.60
2018-10-11T04:51:02.962Z,84.30
2018-10-11T04:53:37.493Z,84.40
2018-10-11T04:56:17.100Z,84.20
2018-10-11T04:58:52.130Z,83.50
2018-10-11T05:01:27.175Z,83.10
2018-10-11T05:04:02.258Z,83.20
2018-10-11T05:06:36.556Z,82.10
2018-10-11T05:09:11.127Z,82.60
2018-10-11T05:11:45.687Z,82.70
2018-10-11T05:14:21.391Z,81.90
2018-10-11T05:16:55.946Z,81.30
2018-10-11T05:19:31.028Z,81.00
2018-10-11T05:22:06.344Z,80.80
2018-10-11T05:24:40.702Z,80.70
2018-10-11T05:27:19.256Z,80.00
2018-10-11T05:29:53.673Z,80.10
2018-10-11T05:32:28.626Z,80.30
2018-10-11T05:35:03.842Z,79.70
2018-10-11T05:37:38.147Z,79.60
2018-10-11T05:40:13.187Z,79.50
2018-10-11T05:42:53.149Z,78.40
2018-10-11T05:45:27.902Z,78.60
2018-10-11T05:48:04.683Z,78.40
2018-10-11T05:50:39.671Z,78.80
2018-10-11T05:53:14.159Z,77.50
2018-10-11T05:55:49.832Z,77.50
2018-10-11T05:58:25.246Z,77.30
2018-10-11T06:00:59.716Z,77.50
2018-10-11T06:03:34.127Z,77.50
2018-10-11T06:06:08.513Z,76.60
2018-10-11T06:08:43.012Z,77.90
2018-10-11T06:11:18.287Z,77.30
2018-10-11T06:13:53.241Z,77.10
2018-10-11T06:16:27.524Z,76.70
2018-10-11T06:19:02.649Z,74.70
2018-10-11T06:21:37.868Z,75.40
2018-10-11T06:24:12.392Z,75.10
2018-10-11T06:26:47.736Z,74.50
2018-10-11T06:29:22.992Z,73.90
2018-10-11T06:31:58.543Z,74.40
2018-10-11T06:34:33.023Z,70.80
2018-10-11T06:37:07.592Z,70.90
2018-10-11T06:39:42.565Z,71.30
2018-10-11T06:42:18.159Z,70.20
2018-10-11T06:44:53.364Z,68.50
2018-10-11T06:47:28.886Z,67.80
2018-10-11T06:50:04.505Z,66.60
2018-10-11T06:52:38.863Z,66.40
2018-10-11T06:55:13.897Z,64.60
2018-10-11T06:57:49.190Z,63.90
2018-10-11T07:00:24.123Z,64.90
2018-10-11T07:02:59.152Z,63.90
2018-10-11T07:05:33.504Z,63.70
2018-10-11T07:08:07.967Z,62.20
2018-10-11T07:10:42.362Z,61.20
2018-10-11T07:13:16.839Z,60.40
2018-10-11T07:15:51.744Z,60.40
2018-10-11T07:18:26.201Z,59.40
2018-10-11T07:21:01.424Z,58.50
2018-10-11T07:23:35.795Z,58.00
2018-10-11T07:26:10.907Z,59.60
2018-10-11T07:28:45.775Z,57.20
2018-10-11T07:31:20.965Z,57.10
2018-10-11T07:33:55.384Z,57.20
2018-10-11T07:36:29.747Z,57.70
2018-10-11T07:39:07.683Z,57.10
2018-10-11T07:41:42.552Z,55.50
2018-10-11T07:44:17.989Z,55.70
2018-10-11T07:46:53.128Z,55.00
2018-10-11T07:49:27.994Z,54.30
2018-10-11T07:52:02.479Z,52.90
2018-10-11T07:54:37.548Z,52.70
2018-10-11T07:57:12.921Z,51.90
2018-10-11T07:59:47.433Z,51.50
2018-10-11T08:02:22.096Z,50.90
2018-10-11T08:04:56.521Z,51.20
2018-10-11T08:07:31.100Z,51.30
2018-10-11T08:10:05.364Z,53.00
2018-10-11T08:12:39.836Z,51.80
2018-10-11T08:15:15.486Z,50.50
2018-10-11T08:17:50.045Z,50.30
2018-10-11T08:20:25.124Z,49.80
2018-10-11T08:22:59.510Z,49.60
2018-10-11T08:25:34.831Z,49.20
2018-10-11T08:28:09.838Z,49.00
2018-10-11T08:30:45.056Z,48.00
2018-10-11T08:33:20.151Z,47.20
2018-10-11T08:35:55.325Z,48.00
2018-10-11T08:38:30.364Z,47.10
2018-10-11T08:41:05.904Z,46.00
2018-10-11T08:43:40.247Z,46.20
2018-10-11T08:46:14.805Z,45.80
2018-10-11T08:48:49.609Z,45.80
2018-10-11T08:51:24.067Z,45.20
2018-10-11T08:54:03.942Z,45.30
2018-10-11T08:56:46.141Z,44.60
2018-10-11T08:59:20.993Z,43.70
2018-10-11T09:01:55.396Z,43.70
2018-10-11T09:04:29.724Z,43.90
2018-10-11T09:07:04.147Z,43.40
2018-10-11T09:09:38.524Z,43.50
2018-10-11T09:12:12.854Z,42.90
2018-10-11T09:14:48.014Z,43.10
2018-10-11T09:17:22.599Z,43.40
2018-10-11T09:19:57.429Z,43.20
2018-10-11T09:22:32.637Z,43.30
2018-10-11T09:25:07.776Z,43.90
2018-10-11T09:27:42.826Z,43.90
2018-10-11T09:30:25.070Z,43.30
2018-10-11T09:32:59.722Z,42.90
2018-10-11T09:35:34.868Z,43.10
2018-10-11T09:38:10.419Z,43.60
2018-10-11T09:40:44.798Z,43.20
2018-10-11T09:43:19.186Z,43.60
2018-10-11T09:45:53.619Z,44.00
2018-10-11T09:48:28.936Z,44.20
2018-10-11T09:51:03.236Z,43.60
2018-10-11T09:53:37.692Z,44.00
2018-10-11T09:56:18.848Z,44.00
2018-10-11T09:58:54.087Z,44.30
2018-10-11T10:01:33.908Z,43.70
2018-10-11T10:04:09.088Z,43.80
2018-10-11T10:06:43.521Z,44.30
2018-10-11T10:09:17.931Z,45.10
2018-10-11T10:11:52.947Z,45.20
2018-10-11T10:14:28.411Z,46.00
2018-10-11T10:17:02.883Z,45.30
2018-10-11T10:19:38.049Z,45.50
2018-10-11T10:22:13.209Z,44.80
2018-10-11T10:24:47.536Z,44.70
2018-10-11T10:27:29.405Z,45.30
2018-10-11T10:30:09.155Z,44.50
2018-10-11T10:32:44.252Z,44.60
2018-10-11T10:35:18.708Z,44.90
2018-10-11T10:37:53.939Z,45.20
2018-10-11T10:40:28.428Z,45.10
2018-10-11T10:43:03.361Z,45.30
2018-10-11T10:45:37.699Z,45.40
2018-10-11T10:48:12.655Z,44.90
2018-10-11T10:50:47.743Z,45.40
2018-10-11T10:53:22.228Z,45.70
2018-10-11T10:55:57.289Z,45.10
2018-10-11T10:58:32.553Z,45.20
2018-10-11T11:01:07.187Z,44.90
2018-10-11T11:03:42.191Z,45.30
2018-10-11T11:06:17.215Z,45.00
2018-10-11T11:08:51.729Z,45.00
2018-10-11T11:11:26.220Z,45.00
2018-10-11T11:14:01.316Z,44.40
2018-10-11T11:16:35.775Z,44.40
2018-10-11T11:19:11.572Z,44.10
2018-10-11T11:21:46.931Z,43.70
2018-10-11T11:24:21.416Z,42.60
2018-10-11T11:26:56.259Z,41.70
2018-10-11T11:29:31.135Z,40.40
2018-10-11T11:32:07.238Z,41.10
2018-10-11T11:34:42.411Z,40.90
2018-10-11T11:37:17.391Z,40.40
2018-10-11T11:39:52.249Z,40.20
2018-10-11T11:42:26.568Z,41.70
2018-10-11T11:45:01.069Z,41.50
2018-10-11T11:47:35.482Z,40.90
2018-10-11T11:50:10.036Z,40.70
2018-10-11T11:52:44.319Z,39.80
2018-10-11T11:55:19.498Z,40.50
2018-10-11T11:57:54.436Z,40.20
2018-10-11T12:00:28.805Z,39.00
2018-10-11T12:03:03.136Z,38.30
2018-10-11T12:05:37.712Z,37.70
2018-10-11T12:08:12.232Z,37.70
2018-10-11T12:10:47.177Z,39.40
2018-10-11T12:16:03.926Z,39.50
2018-10-11T12:18:39.044Z,39.90
2018-10-11T12:21:13.892Z,39.60
2018-10-11T12:23:49.251Z,40.20
2018-10-11T12:26:24.647Z,39.40
2018-10-11T12:28:59.843Z,39.00
2018-10-11T12:31:35.083Z,38.90
2018-10-11T12:34:09.560Z,39.20
2018-10-11T12:36:43.968Z,39.70
2018-10-11T12:39:18.910Z,39.90
2018-10-11T12:41:53.176Z,40.00
2018-10-11T12:44:27.613Z,39.90
2018-10-11T12:47:02.065Z,39.20
2018-10-11T12:49:39.229Z,40.40
2018-10-11T12:52:11.023Z,39.20
2018-10-11T12:54:46.207Z,40.40
2018-10-11T12:57:21.530Z,39.90
2018-10-11T12:59:56.811Z,39.70
2018-10-11T13:02:31.256Z,40.30
2018-10-11T13:05:05.812Z,39.50
2018-10-11T13:07:40.531Z,40.80
2018-10-11T13:10:15.420Z,40.60
2018-10-11T13:12:50.461Z,38.60
2018-10-11T13:15:25.640Z,38.40
2018-10-11T13:17:59.960Z,36.20
2018-10-11T13:20:35.477Z,36.00
2018-10-11T13:23:13.279Z,35.20
2018-10-11T13:25:45.067Z,35.40
2018-10-11T13:28:27.744Z,35.20
2018-10-11T13:31:02.892Z,34.90
2018-10-11T13:33:37.276Z,35.00
2018-10-11T13:36:11.606Z,35.90
2018-10-11T13:38:47.072Z,36.20
2018-10-11T13:41:21.619Z,36.00
2018-10-11T13:43:56.006Z,36.20
2018-10-11T13:46:30.804Z,36.40
2018-10-11T13:49:05.318Z,37.00
2018-10-11T13:51:39.896Z,37.40
2018-10-11T13:54:18.341Z,37.40
2018-10-11T13:56:57.005Z,36.80
2018-10-11T13:59:28.171Z,37.20
2018-10-11T14:02:03.229Z,36.90
2018-10-11T14:04:37.808Z,36.80
2018-10-11T14:07:12.244Z,37.20
2018-10-11T14:09:47.377Z,37.40
2018-10-11T14:12:22.453Z,37.50
2018-10-11T14:14:57.444Z,37.70
2018-10-11T14:17:32.246Z,36.60
2018-10-11T14:20:07.645Z,37.00
2018-10-11T14:22:42.779Z,37.00
2018-10-11T14:25:18.335Z,37.70
2018-10-11T14:27:53.730Z,38.00
2018-10-11T14:30:29.057Z,37.80
2018-10-11T14:33:03.523Z,38.30
2018-10-11T14:35:38.019Z,38.40
2018-10-11T14:38:13.436Z,38.30
2018-10-11T14:40:48.013Z,38.10
2018-10-11T14:43:23.625Z,38.00
2018-10-11T14:45:59.072Z,37.60
2018-10-11T14:48:33.901Z,37.90
2018-10-11T14:51:08.954Z,38.00
2018-10-11T14:53:43.619Z,38.00
2018-10-11T14:56:21.471Z,38.00
2018-10-11T14:58:56.844Z,38.00
2018-10-11T15:01:32.017Z,37.50
2018-10-11T15:04:06.651Z,37.50
2018-10-11T15:06:41.151Z,37.60
2018-10-11T15:09:16.536Z,38.00
2018-10-11T15:11:52.178Z,37.80
2018-10-11T15:14:27.384Z,37.40
2018-10-11T15:17:01.837Z,37.50
2018-10-11T15:19:37.212Z,38.30
2018-10-11T15:22:12.364Z,39.00
2018-10-11T15:24:48.008Z,39.30
2018-10-11T15:27:38.513Z,39.50
2018-10-11T15:30:13.027Z,39.40
2018-10-11T15:32:48.505Z,39.70
2018-10-11T15:35:22.993Z,39.40
2018-10-11T15:37:58.615Z,40.10
2018-10-11T15:40:33.651Z,40.50
2018-10-11T15:43:08.926Z,40.90
2018-10-11T15:45:44.335Z,41.30
2018-10-11T15:48:19.142Z,41.20
2018-10-11T15:50:54.047Z,41.20
2018-10-11T15:53:28.520Z,41.10
2018-10-11T15:56:04.612Z,40.50
2018-10-11T15:58:40.150Z,40.40
2018-10-11T16:01:14.493Z,40.20
2018-10-11T16:03:48.964Z,40.30
2018-10-11T16:06:23.463Z,41.10
2018-10-11T16:08:57.882Z,41.00
2018-10-11T16:11:32.941Z,41.40
2018-10-11T16:14:07.839Z,41.80
2018-10-11T16:16:42.413Z,42.00
2018-10-11T16:19:17.898Z,42.70
2018-10-11T16:21:53.366Z,43.30
2018-10-11T16:24:28.212Z,43.40
2018-10-11T16:27:03.334Z,43.60
2018-10-11T16:29:38.219Z,44.20
2018-10-11T16:32:13.588Z,44.40
2018-10-11T16:34:48.042Z,44.50
2018-10-11T16:37:22.445Z,44.50
2018-10-11T16:39:57.487Z,44.70
2018-10-11T16:42:32.544Z,44.80
2018-10-11T16:45:07.878Z,45.00
2018-10-11T16:47:42.344Z,45.10
2018-10-11T16:50:16.657Z,45.50
2018-10-11T16:52:51.698Z,46.00
2018-10-11T16:55:27.200Z,46.40
2018-10-11T16:58:02.230Z,46.30
2018-10-11T17:00:37.399Z,46.50
2018-10-11T17:03:11.890Z,46.80
2018-10-11T17:05:46.733Z,46.90
2018-10-11T17:08:21.237Z,47.20
2018-10-11T17:10:55.638Z,47.60
2018-10-11T17:13:34.501Z,47.70
2018-10-11T17:16:09.065Z,47.60
2018-10-11T17:18:58.596Z,47.80
2018-10-11T17:21:33.955Z,48.30
2018-10-11T17:24:08.542Z,48.70
2018-10-11T17:26:43.337Z,48.80
2018-10-11T17:29:18.332Z,48.90
2018-10-11T17:31:53.568Z,49.20
2018-10-11T17:34:28.061Z,49.50
2018-10-11T17:37:03.755Z,49.50
2018-10-11T17:39:38.486Z,49.60
2018-10-11T17:42:13.034Z,49.70
2018-10-11T17:44:48.444Z,49.90
2018-10-11T17:47:23.452Z,50.00
2018-10-11T17:49:58.564Z,50.60
2018-10-11T17:52:34.078Z,51.20
2018-10-11T17:55:09.411Z,50.90
2018-10-11T17:57:44.287Z,51.40
2018-10-11T18:00:18.859Z,51.50
2018-10-11T18:02:53.407Z,51.60
2018-10-11T18:05:28.279Z,51.80
2018-10-11T18:08:03.278Z,52.00
2018-10-11T18:10:38.336Z,52.70
2018-10-11T18:13:13.252Z,51.80
2018-10-11T18:15:48.353Z,52.00
2018-10-11T18:18:23.436Z,52.20
2018-10-11T18:20:58.552Z,52.60
2018-10-11T18:23:33.005Z,52.70
2018-10-11T18:26:08.671Z,52.60
2018-10-11T18:28:43.923Z,53.10
2018-10-11T18:31:19.194Z,52.90
2018-10-11T18:33:54.572Z,52.70
2018-10-11T18:36:29.927Z,52.40
2018-10-11T18:39:10.085Z,52.30
2018-10-11T18:41:44.579Z,53.20
2018-10-11T18:44:19.688Z,53.60
2018-10-11T18:46:54.343Z,53.50
2018-10-11T18:49:30.098Z,53.60
2018-10-11T18:52:04.663Z,53.60
2018-10-11T18:54:46.516Z,53.70
2018-10-11T18:57:21.775Z,54.20
2018-10-11T18:59:56.659Z,54.20
2018-10-11T19:02:31.206Z,54.30
2018-10-11T19:05:05.780Z,54.30
2018-10-11T19:07:40.340Z,54.50
2018-10-11T19:10:14.796Z,54.60
2018-10-11T19:12:50.311Z,54.80
2018-10-11T19:15:25.331Z,55.10
2018-10-11T19:17:59.984Z,55.10
2018-10-11T19:20:35.196Z,55.00
2018-10-11T19:23:10.176Z,55.30
2018-10-11T19:25:45.387Z,55.40
2018-10-11T19:28:20.806Z,56.10
2018-10-11T19:30:55.793Z,56.00
2018-10-11T19:33:31.776Z,56.10
2018-10-11T19:36:06.656Z,56.40
2018-10-11T19:38:41.604Z,56.60
2018-10-11T19:41:16.451Z,57.10
2018-10-11T19:43:50.837Z,57.10
2018-10-11T19:46:25.354Z,57.90
2018-10-11T19:49:00.828Z,58.70
2018-10-11T19:51:35.600Z,59.20
2018-10-11T19:54:10.841Z,59.80
2018-10-11T19:56:48.516Z,60.10
2018-10-11T19:59:22.903Z,60.50
2018-10-11T20:01:57.632Z,61.10
2018-10-11T20:04:40.696Z,61.80
2018-10-11T20:07:15.275Z,62.50
2018-10-11T20:09:49.996Z,63.20
2018-10-11T20:12:25.352Z,63.50
2018-10-11T20:15:01.057Z,63.70
2018-10-11T20:17:35.608Z,63.50
2018-10-11T20:20:10.456Z,62.30
2018-10-11T20:22:45.736Z,61.80
2018-10-11T20:25:21.295Z,63.20
2018-10-11T20:27:56.530Z,63.50
2018-10-11T20:30:32.068Z,63.40
2018-10-11T20:33:07.135Z,63.30
2018-10-11T20:35:42.074Z,63.20
2018-10-11T20:38:17.016Z,63.50
2018-10-11T20:40:51.743Z,63.70
2018-10-11T20:43:26.441Z,63.40
2018-10-11T20:46:01.002Z,63.40
2018-10-11T20:48:43.199Z,63.40
2018-10-11T20:51:18.296Z,63.40
2018-10-11T20:53:53.444Z,63.20
2018-10-11T20:56:28.772Z,62.80
2018-10-11T20:59:03.727Z,62.30
2018-10-11T21:01:38.311Z,62.20
2018-10-11T21:04:12.824Z,62.10
2018-10-11T21:06:47.397Z,62.00
2018-10-11T21:09:23.166Z,62.00
2018-10-11T21:11:59.116Z,62.20
2018-10-11T21:14:34.897Z,62.20
2018-10-11T21:17:09.577Z,62.30
2018-10-11T21:19:44.784Z,62.60
2018-10-11T21:22:20.017Z,62.70
2018-10-11T21:24:54.545Z,62.80
2018-10-11T21:27:29.828Z,62.90
2018-10-11T21:30:05.260Z,63.30
2018-10-11T21:32:40.492Z,63.40
2018-10-11T21:35:15.046Z,63.70
2018-10-11T21:37:52.006Z,64.30
2018-10-11T21:40:26.706Z,64.20
2018-10-11T21:43:01.364Z,64.20
2018-10-11T21:45:35.884Z,64.20
2018-10-11T21:48:10.540Z,64.60
2018-10-11T21:50:45.575Z,65.00
2018-10-11T21:53:20.575Z,65.00
2018-10-11T21:55:55.905Z,65.00
2018-10-11T21:58:31.071Z,65.80
2018-10-11T22:03:51.286Z,66.20
2018-10-11T22:06:26.145Z,66.60
2018-10-11T22:09:01.399Z,66.90
2018-10-11T22:11:35.895Z,67.10
2018-10-11T22:14:11.469Z,67.40
2018-10-11T22:16:45.994Z,67.70
2018-10-11T22:19:22.000Z,68.30
2018-10-11T22:21:57.260Z,69.00
2018-10-11T22:24:32.811Z,69.50
2018-10-11T22:27:13.807Z,69.50
2018-10-11T22:29:49.013Z,69.80
2018-10-11T22:32:24.091Z,68.60
2018-10-11T22:35:00.072Z,68.50
2018-10-11T22:37:34.444Z,69.40
2018-10-11T22:40:09.479Z,69.40
2018-10-11T22:42:43.952Z,69.90
2018-10-11T22:45:18.409Z,70.40
2018-10-11T22:47:53.185Z,69.70
2018-10-11T22:50:28.504Z,69.90
2018-10-11T22:53:04.088Z,70.00
2018-10-11T22:55:39.169Z,70.50
2018-10-11T22:58:14.153Z,70.50
2018-10-11T23:00:48.632Z,69.80
2018-10-11T23:03:23.096Z,69.50
2018-10-11T23:05:58.064Z,69.70
2018-10-11T23:08:32.486Z,69.80
2018-10-11T23:11:07.600Z,69.90
2018-10-11T23:13:42.495Z,70.80
2018-10-11T23:16:16.866Z,70.50
2018-10-11T23:18:53.076Z,70.10
2018-10-11T23:21:28.089Z,70.20
2018-10-11T23:24:03.528Z,70.20
2018-10-11T23:26:38.600Z,70.80
2018-10-11T23:29:13.979Z,70.70
2018-10-11T23:31:53.357Z,70.50
2018-10-11T23:34:27.892Z,71.20
2018-10-11T23:37:02.303Z,71.10
2018-10-11T23:39:37.663Z,71.50
2018-10-11T23:42:12.250Z,71.40
2018-10-11T23:44:46.787Z,71.30
2018-10-11T23:47:21.231Z,71.50
2018-10-11T23:49:55.765Z,71.50
2018-10-11T23:52:34.151Z,71.40
2018-10-11T23:55:09.969Z,71.20
2018-10-11T23:57:45.786Z,71.50
